createdAt,value
2022-11-04T00:02:08.077Z,9.33
2022-11-04T00:04:34.908Z,6.27
2022-11-04T00:07:01.779Z,11.47
2022-11-04T00:09:30.396Z,12.33
2022-11-04T00:12:16.061Z,8.53
2022-11-04T00:14:42.973Z,8.43
2022-11-04T00:17:22.349Z,6.60
2022-11-04T00:20:12.556Z,7.63
2022-11-04T00:22:58.936Z,11.70
2022-11-04T00:25:44.527Z,5.73
2022-11-04T00:28:34.099Z,10.50
2022-11-04T00:31:19.861Z,10.17
2022-11-04T00:33:47.538Z,6.50
2022-11-04T00:36:14.361Z,9.10
2022-11-04T00:38:41.127Z,8.40
2022-11-04T00:41:26.431Z,7.63
2022-11-04T00:43:58.249Z,9.57
2022-11-04T00:46:25.165Z,6.27
2022-11-04T00:48:51.992Z,10.17
2022-11-04T00:51:19.715Z,6.87
2022-11-04T00:53:46.483Z,9.13
2022-11-04T00:56:13.309Z,8.70
2022-11-04T00:58:40.096Z,8.67
2022-11-04T01:01:19.776Z,7.27
2022-11-04T01:03:47.768Z,6.63
2022-11-04T01:06:14.627Z,5.27
2022-11-04T01:08:41.489Z,9.57
2022-11-04T01:11:09.243Z,7.40
2022-11-04T01:13:36.185Z,9.83
2022-11-04T01:16:04.114Z,7.80
2022-11-04T01:18:30.928Z,8.27
2022-11-04T01:21:01.560Z,13.07
2022-11-04T01:23:28.825Z,36.60
2022-11-04T01:25:55.748Z,36.23
2022-11-04T01:28:22.523Z,42.17
2022-11-04T01:30:49.356Z,42.70
2022-11-04T01:33:16.145Z,47.90
2022-11-04T01:35:42.910Z,49.67
2022-11-04T01:38:10.015Z,51.90
2022-11-04T01:40:40.600Z,50.97
2022-11-04T01:43:15.552Z,53.10
2022-11-04T01:45:47.128Z,54.83
2022-11-04T01:48:17.543Z,53.80
2022-11-04T01:50:44.310Z,51.97
2022-11-04T01:53:16.601Z,49.43
2022-11-04T01:55:45.465Z,50.87
2022-11-04T01:58:14.889Z,48.90
2022-11-04T02:00:42.072Z,52.03
2022-11-04T02:03:22.080Z,49.23
2022-11-04T02:05:48.976Z,48.07
2022-11-04T02:08:15.847Z,46.20
2022-11-04T02:10:49.020Z,47.30
2022-11-04T02:13:15.805Z,48.27
2022-11-04T02:15:54.877Z,45.27
2022-11-04T02:18:31.552Z,38.70
2022-11-04T02:21:35.866Z,44.27
2022-11-04T02:24:21.353Z,39.27
2022-11-04T02:27:00.218Z,41.43
2022-11-04T02:29:36.037Z,34.77
2022-11-04T02:32:33.355Z,34.00
2022-11-04T02:35:30.969Z,40.57
2022-11-04T02:38:29.933Z,40.50
2022-11-04T02:41:12.957Z,45.53
2022-11-04T02:44:00.100Z,43.27
2022-11-04T02:47:00.327Z,33.23
2022-11-04T02:49:32.839Z,46.17
2022-11-04T02:52:03.316Z,45.07
2022-11-04T02:54:51.910Z,49.17
2022-11-04T02:57:30.480Z,45.53
2022-11-04T03:00:01.547Z,46.73
2022-11-04T03:02:31.442Z,42.87
2022-11-04T03:04:58.512Z,45.17
2022-11-04T03:07:28.317Z,37.27
2022-11-04T03:09:58.641Z,45.87
2022-11-04T03:12:27.911Z,48.93
2022-11-04T03:15:01.918Z,47.40
2022-11-04T03:17:36.480Z,48.30
2022-11-04T03:20:06.480Z,30.93
2022-11-04T03:22:36.958Z,32.17
2022-11-04T03:25:07.763Z,30.43
2022-11-04T03:28:01.567Z,34.33
2022-11-04T03:30:28.568Z,34.93
2022-11-04T03:33:00.168Z,36.20
2022-11-04T03:35:27.281Z,34.27
2022-11-04T03:37:54.092Z,36.70
2022-11-04T03:40:20.927Z,35.40
2022-11-04T03:43:18.081Z,38.70
2022-11-04T03:45:44.870Z,35.00
2022-11-04T03:48:12.166Z,39.03
2022-11-04T03:50:43.488Z,37.23
2022-11-04T03:53:10.992Z,38.00
2022-11-04T03:56:03.760Z,37.63
2022-11-04T03:58:52.419Z,39.77
2022-11-04T04:01:31.319Z,40.80
2022-11-04T04:03:59.622Z,39.57
2022-11-04T04:06:31.297Z,41.77
2022-11-04T04:09:21.466Z,41.00
2022-11-04T04:12:01.327Z,41.63
2022-11-04T04:14:49.632Z,45.83
2022-11-04T04:17:36.101Z,45.53
2022-11-04T04:20:16.035Z,43.20
2022-11-04T04:22:49.127Z,44.47
2022-11-04T04:25:34.142Z,47.27
2022-11-04T04:28:00.961Z,43.07
2022-11-04T04:30:27.751Z,44.13
2022-11-04T04:33:27.983Z,43.77
2022-11-04T04:35:55.693Z,44.00
2022-11-04T04:38:42.382Z,44.20
2022-11-04T04:41:33.535Z,43.40
2022-11-04T04:44:18.896Z,43.10
2022-11-04T04:46:46.025Z,39.97
2022-11-04T04:49:12.907Z,42.50
2022-11-04T04:51:47.173Z,41.63
2022-11-04T04:54:14.113Z,42.07
2022-11-04T04:56:40.908Z,37.73
2022-11-04T04:59:07.738Z,38.53
2022-11-04T05:01:34.653Z,37.80
2022-11-04T05:04:01.536Z,37.20
2022-11-04T05:06:28.363Z,37.47
2022-11-04T05:08:55.110Z,37.20
2022-11-04T05:11:24.611Z,37.13
2022-11-04T05:13:53.997Z,35.83
2022-11-04T05:16:21.881Z,25.70
2022-11-04T05:18:48.639Z,34.37
2022-11-04T05:21:16.221Z,33.80
2022-11-04T05:23:43.006Z,35.43
2022-11-04T05:26:09.944Z,36.17
2022-11-04T05:28:36.771Z,33.77
2022-11-04T05:31:04.922Z,36.70
2022-11-04T05:33:32.077Z,29.93
2022-11-04T05:36:08.872Z,34.33
2022-11-04T05:38:35.756Z,36.27
2022-11-04T05:41:02.684Z,37.40
2022-11-04T05:43:29.511Z,37.47
2022-11-04T05:45:58.104Z,36.17
2022-11-04T05:48:25.045Z,31.67
2022-11-04T05:50:51.890Z,36.13
2022-11-04T05:53:18.731Z,35.70
2022-11-04T05:55:45.471Z,33.67
2022-11-04T05:58:12.323Z,30.87
2022-11-04T06:00:39.112Z,33.07
2022-11-04T06:03:06.876Z,31.53
2022-11-04T06:05:34.359Z,27.13
2022-11-04T06:08:01.197Z,27.87
2022-11-04T06:10:27.960Z,30.13
2022-11-04T06:12:54.724Z,30.67
2022-11-04T06:15:21.609Z,30.10
2022-11-04T06:17:48.387Z,30.57
2022-11-04T06:20:15.298Z,32.93
2022-11-04T06:22:42.097Z,18.77
2022-11-04T06:25:09.384Z,23.83
2022-11-04T06:27:36.173Z,35.13
2022-11-04T06:30:03.060Z,34.27
2022-11-04T06:32:29.827Z,34.20
2022-11-04T06:34:56.738Z,35.20
2022-11-04T06:37:23.530Z,33.90
2022-11-04T06:39:50.347Z,31.83
2022-11-04T06:42:17.182Z,32.30
2022-11-04T06:44:43.960Z,34.40
2022-11-04T06:47:10.754Z,33.17
2022-11-04T06:49:37.570Z,32.07
2022-11-04T06:52:04.533Z,32.00
2022-11-04T06:54:31.405Z,29.00
2022-11-04T06:56:58.252Z,22.90
2022-11-04T06:59:25.081Z,28.43
2022-11-04T07:01:52.327Z,32.17
2022-11-04T07:04:19.524Z,33.93
2022-11-04T07:06:46.347Z,19.63
2022-11-04T07:09:13.909Z,18.23
2022-11-04T07:11:40.871Z,20.03
2022-11-04T07:14:09.001Z,29.17
2022-11-04T07:16:36.065Z,26.70
2022-11-04T07:19:03.179Z,27.27
2022-11-04T07:21:29.951Z,27.53
2022-11-04T07:23:56.721Z,29.17
2022-11-04T07:26:23.544Z,29.93
2022-11-04T07:28:50.307Z,28.40
2022-11-04T07:31:18.111Z,30.90
2022-11-04T07:33:49.817Z,30.17
2022-11-04T07:36:17.292Z,32.10
2022-11-04T07:38:44.216Z,32.43
2022-11-04T07:41:11.383Z,31.20
2022-11-04T07:43:38.217Z,29.03
2022-11-04T07:46:06.953Z,29.47
2022-11-04T07:48:33.904Z,31.80
2022-11-04T07:51:01.494Z,33.90
2022-11-04T07:53:29.554Z,32.90
2022-11-04T07:55:56.663Z,33.77
2022-11-04T07:58:23.597Z,35.30
2022-11-04T08:00:50.437Z,32.90
2022-11-04T08:03:17.316Z,34.50
2022-11-04T08:05:44.732Z,31.13
2022-11-04T08:08:11.529Z,30.73
2022-11-04T08:10:38.332Z,30.70
2022-11-04T08:13:05.229Z,31.83
2022-11-04T08:15:32.058Z,31.03
2022-11-04T08:17:58.846Z,27.27
2022-11-04T08:20:25.658Z,23.10
2022-11-04T08:22:52.446Z,22.70
2022-11-04T08:25:19.312Z,21.17
2022-11-04T08:27:46.077Z,23.67
2022-11-04T08:30:12.920Z,19.90
2022-11-04T08:32:39.868Z,20.00
2022-11-04T08:35:06.924Z,18.67
2022-11-04T08:37:33.693Z,19.73
2022-11-04T08:40:00.549Z,23.97
2022-11-04T08:42:27.375Z,26.63
2022-11-04T08:44:54.190Z,25.20
2022-11-04T08:47:20.975Z,25.10
2022-11-04T08:49:47.801Z,25.07
2022-11-04T08:52:14.553Z,25.93
2022-11-04T08:54:41.354Z,25.60
2022-11-04T08:57:09.349Z,25.87
2022-11-04T08:59:36.478Z,27.70
2022-11-04T09:02:03.301Z,30.10
2022-11-04T09:04:30.168Z,27.23
2022-11-04T09:06:57.485Z,28.70
2022-11-04T09:09:24.259Z,31.47
2022-11-04T09:11:51.057Z,29.20
2022-11-04T09:14:18.040Z,27.83
2022-11-04T09:16:44.864Z,27.77
2022-11-04T09:19:11.641Z,28.77
2022-11-04T09:21:38.446Z,28.90
2022-11-04T09:24:06.152Z,27.90
2022-11-04T09:26:33.027Z,27.50
2022-11-04T09:28:59.952Z,26.63
2022-11-04T09:31:28.144Z,24.83
2022-11-04T09:33:55.584Z,21.37
2022-11-04T09:36:22.633Z,21.87
2022-11-04T09:38:49.769Z,21.63
2022-11-04T09:41:25.328Z,20.67
2022-11-04T09:43:55.145Z,19.00
2022-11-04T09:46:21.905Z,16.90
2022-11-04T09:48:53.777Z,15.77
2022-11-04T09:51:48.122Z,17.43
2022-11-04T09:54:37.566Z,13.27
2022-11-04T09:57:04.361Z,13.37
2022-11-04T09:59:34.090Z,13.17
2022-11-04T10:02:29.900Z,11.93
2022-11-04T10:04:56.788Z,11.77
2022-11-04T10:07:44.840Z,11.17
2022-11-04T10:10:37.635Z,10.10
2022-11-04T10:13:26.377Z,9.40
2022-11-04T10:15:53.133Z,9.50
2022-11-04T10:18:58.169Z,9.33
2022-11-04T10:21:58.086Z,9.30
2022-11-04T10:24:41.529Z,9.00
2022-11-04T10:27:28.625Z,9.70
2022-11-04T10:30:04.242Z,8.07
2022-11-04T10:32:40.306Z,8.97
2022-11-04T10:35:13.308Z,8.75
2022-11-04T10:37:40.069Z,8.00
2022-11-04T10:40:25.247Z,7.15
2022-11-04T10:42:52.821Z,4.30
2022-11-04T10:45:21.222Z,4.82
2022-11-04T10:47:52.130Z,4.47
2022-11-04T10:50:29.817Z,3.03
2022-11-04T10:53:13.585Z,5.40
2022-11-04T10:55:54.742Z,4.43
2022-11-04T10:58:27.018Z,6.70
2022-11-04T11:00:54.597Z,5.55
2022-11-04T11:03:31.560Z,6.10
2022-11-04T11:06:12.131Z,6.72
2022-11-04T11:08:39.200Z,5.07
2022-11-04T11:11:06.631Z,5.03
2022-11-04T11:13:38.450Z,3.73
2022-11-04T11:16:06.457Z,3.85
2022-11-04T11:18:33.269Z,6.47
2022-11-04T11:21:18.416Z,5.03
2022-11-04T11:23:47.529Z,6.00
2022-11-04T11:26:21.389Z,5.22
2022-11-04T11:28:59.181Z,5.13
2022-11-04T11:31:26.626Z,3.83
2022-11-04T11:33:59.611Z,3.90
2022-11-04T11:36:31.508Z,8.03
2022-11-04T11:39:06.466Z,6.57
2022-11-04T11:41:52.033Z,4.00
2022-11-04T11:44:27.393Z,5.53
2022-11-04T11:46:56.141Z,2.93
2022-11-04T11:49:29.143Z,3.67
2022-11-04T11:51:56.343Z,8.25
2022-11-04T11:54:23.220Z,8.25
2022-11-04T12:03:03.072Z,6.80
2022-11-04T12:12:06.348Z,7.07
2022-11-04T12:14:36.615Z,11.20
2022-11-04T12:17:15.637Z,8.75
2022-11-04T12:20:15.217Z,3.70
2022-11-04T12:22:48.181Z,5.80
2022-11-04T12:25:20.923Z,5.75
2022-11-04T12:27:52.422Z,4.70
2022-11-04T12:30:29.836Z,4.85
2022-11-04T12:33:05.457Z,3.87
2022-11-04T12:35:53.641Z,4.38
2022-11-04T12:38:26.252Z,4.82
2022-11-04T12:41:37.961Z,6.83
2022-11-04T12:44:28.528Z,8.35
2022-11-04T12:47:07.973Z,4.25
2022-11-04T12:49:49.087Z,4.53
2022-11-04T12:52:18.768Z,6.17
2022-11-04T12:54:45.566Z,5.60
2022-11-04T12:57:37.952Z,4.75
2022-11-04T13:00:07.860Z,6.70
2022-11-04T13:02:36.779Z,5.57
2022-11-04T13:05:21.181Z,5.05
2022-11-04T13:08:16.088Z,6.72
2022-11-04T13:11:03.375Z,10.52
2022-11-04T13:13:34.697Z,6.85
2022-11-04T13:16:04.441Z,3.15
2022-11-04T13:18:33.348Z,7.73
2022-11-04T13:21:07.202Z,12.20
2022-11-04T13:23:55.279Z,6.33
2022-11-04T13:26:22.109Z,11.27
2022-11-04T13:29:03.083Z,11.50
2022-11-04T13:31:46.181Z,9.07
2022-11-04T13:34:42.801Z,9.33
2022-11-04T13:37:29.179Z,15.20
2022-11-04T13:39:59.555Z,10.77
2022-11-04T13:42:41.029Z,15.67
2022-11-04T13:45:12.471Z,11.77
2022-11-04T13:47:55.021Z,14.30
2022-11-04T13:50:27.873Z,6.37
2022-11-04T13:52:54.701Z,9.15
2022-11-04T13:55:21.638Z,9.63
2022-11-04T13:57:53.718Z,13.80
2022-11-04T14:00:27.922Z,10.47
2022-11-04T14:02:56.193Z,10.82
2022-11-04T14:05:32.406Z,13.95
2022-11-04T14:08:02.243Z,8.00
2022-11-04T14:10:39.236Z,8.02
2022-11-04T14:13:27.791Z,9.57
2022-11-04T14:16:03.868Z,7.38
2022-11-04T14:18:34.422Z,7.30
2022-11-04T14:21:18.135Z,9.65
2022-11-04T14:23:50.301Z,13.95
2022-11-04T14:26:18.897Z,8.70
2022-11-04T14:29:04.659Z,8.82
2022-11-04T14:31:36.893Z,6.35
2022-11-04T14:34:03.661Z,9.00
2022-11-04T14:36:32.206Z,5.97
2022-11-04T14:39:12.474Z,8.75
2022-11-04T14:42:02.464Z,8.15
2022-11-04T14:44:46.748Z,10.15
2022-11-04T14:47:19.156Z,11.68
2022-11-04T14:49:53.521Z,11.40
2022-11-04T14:52:27.580Z,7.15
2022-11-04T14:54:57.681Z,12.15
2022-11-04T14:57:24.710Z,14.00
2022-11-04T14:59:53.166Z,7.40
2022-11-04T15:02:28.502Z,12.90
2022-11-04T15:04:59.715Z,9.43
2022-11-04T15:07:35.644Z,7.60
2022-11-04T15:10:05.328Z,10.88
2022-11-04T15:13:04.456Z,8.83
2022-11-04T15:15:31.486Z,8.43
2022-11-04T15:18:06.768Z,10.13
2022-11-04T15:20:35.585Z,6.67
2022-11-04T15:23:03.355Z,6.83
2022-11-04T15:25:30.190Z,14.73
2022-11-04T15:27:58.243Z,4.40
2022-11-04T15:30:27.781Z,10.80
2022-11-04T15:33:00.104Z,12.97
2022-11-04T15:35:28.436Z,11.95
2022-11-04T15:37:55.230Z,7.83
2022-11-04T15:40:22.225Z,10.63
2022-11-04T15:42:49.639Z,13.93
2022-11-04T15:45:29.450Z,14.05
2022-11-04T15:48:41.472Z,9.23
2022-11-04T15:51:22.235Z,12.60
2022-11-04T15:54:02.324Z,10.05
2022-11-04T15:56:55.155Z,12.27
2022-11-04T15:59:45.747Z,16.13
2022-11-04T16:02:39.070Z,7.17
2022-11-04T16:05:07.052Z,8.37
2022-11-04T16:07:41.003Z,12.47
2022-11-04T16:10:26.278Z,8.87
2022-11-04T16:13:15.000Z,11.30
2022-11-04T16:15:56.892Z,8.30
2022-11-04T16:18:24.372Z,9.03
2022-11-04T16:20:53.148Z,11.40
2022-11-04T16:23:22.873Z,9.27
2022-11-04T16:26:05.783Z,6.43
2022-11-04T16:28:36.069Z,8.07
2022-11-04T16:31:07.996Z,10.03
2022-11-04T16:33:34.793Z,9.00
2022-11-04T16:36:01.844Z,7.60
2022-11-04T16:38:28.635Z,14.20
2022-11-04T16:40:55.379Z,15.97
2022-11-04T16:43:22.394Z,13.73
2022-11-04T16:45:53.503Z,13.23
2022-11-04T16:48:20.962Z,11.50
2022-11-04T16:50:49.001Z,8.13
2022-11-04T16:53:15.866Z,13.20
2022-11-04T16:55:43.176Z,12.97
2022-11-04T16:58:16.146Z,9.20
2022-11-04T17:00:43.203Z,13.27
2022-11-04T17:03:22.504Z,10.97
2022-11-04T17:05:56.651Z,15.80
2022-11-04T17:08:24.629Z,8.03
2022-11-04T17:10:51.435Z,9.10
2022-11-04T17:13:18.195Z,12.03
2022-11-04T17:15:45.011Z,7.20
2022-11-04T17:18:16.273Z,10.10
2022-11-04T17:20:44.461Z,10.50
2022-11-04T17:23:14.792Z,12.80
2022-11-04T17:25:41.811Z,10.43
2022-11-04T17:28:08.688Z,7.30
2022-11-04T17:30:35.624Z,8.77
2022-11-04T17:33:06.472Z,13.63
2022-11-04T17:35:35.092Z,15.60
2022-11-04T17:38:01.937Z,13.00
2022-11-04T17:40:28.712Z,10.80
2022-11-04T17:43:14.389Z,11.63
2022-11-04T17:45:42.256Z,16.53
2022-11-04T17:48:10.272Z,11.83
2022-11-04T17:50:38.736Z,11.60
2022-11-04T17:53:05.495Z,9.97
2022-11-04T17:55:37.508Z,8.87
2022-11-04T17:58:04.305Z,9.83
2022-11-04T18:00:31.082Z,12.03
2022-11-04T18:02:57.856Z,11.30
2022-11-04T18:05:24.642Z,16.03
2022-11-04T18:07:53.790Z,6.60
2022-11-04T18:10:20.609Z,14.57
2022-11-04T18:12:47.412Z,14.37
2022-11-04T18:15:14.580Z,12.70
2022-11-04T18:17:42.369Z,13.03
2022-11-04T18:20:14.898Z,11.27
2022-11-04T18:22:41.984Z,9.97
2022-11-04T18:25:09.450Z,6.43
2022-11-04T18:27:36.357Z,9.77
2022-11-04T18:30:03.294Z,8.77
2022-11-04T18:32:30.122Z,12.20
2022-11-04T18:34:57.659Z,8.83
2022-11-04T18:37:24.499Z,11.00
2022-11-04T18:39:51.303Z,11.50
2022-11-04T18:42:18.058Z,9.50
2022-11-04T18:44:44.821Z,11.63
2022-11-04T18:47:11.601Z,6.73
2022-11-04T18:49:38.363Z,6.77
2022-11-04T18:52:05.291Z,7.93
2022-11-04T18:54:32.146Z,6.63
2022-11-04T18:56:58.908Z,7.43
2022-11-04T18:59:25.673Z,10.70
2022-11-04T19:01:53.392Z,13.07
2022-11-04T19:04:20.397Z,11.47
2022-11-04T19:06:47.188Z,8.47
2022-11-04T19:12:20.483Z,8.60
2022-11-04T19:14:47.391Z,6.13
2022-11-04T19:17:14.211Z,9.27
2022-11-04T19:19:41.290Z,9.33
2022-11-04T19:22:08.624Z,9.30
2022-11-04T19:24:35.504Z,8.90
2022-11-04T19:27:02.277Z,6.03
2022-11-04T19:29:29.577Z,6.50
2022-11-04T19:31:56.424Z,7.37
2022-11-04T19:34:23.254Z,7.77
2022-11-04T19:36:50.029Z,6.60
2022-11-04T19:39:16.859Z,7.73
2022-11-04T19:42:02.527Z,8.13
2022-11-04T19:44:29.296Z,6.80
2022-11-04T19:46:56.057Z,10.00
2022-11-04T19:49:22.930Z,5.50
2022-11-04T19:51:49.688Z,6.50
2022-11-04T19:54:16.503Z,5.70
2022-11-04T19:56:43.351Z,7.77
2022-11-04T19:59:10.512Z,6.07
2022-11-04T20:01:37.455Z,6.50
2022-11-04T20:04:04.449Z,5.00
2022-11-04T20:06:32.436Z,6.43
2022-11-04T20:09:05.475Z,9.27
2022-11-04T20:11:33.358Z,10.23
2022-11-04T20:14:06.487Z,7.47
2022-11-04T20:16:39.431Z,15.70
2022-11-04T20:19:06.516Z,5.57
2022-11-04T20:21:37.080Z,6.50
2022-11-04T20:24:05.672Z,12.77
2022-11-04T20:26:33.096Z,9.00
2022-11-04T20:29:00.013Z,11.00
2022-11-04T20:31:28.783Z,13.00
2022-11-04T20:33:56.053Z,7.90
2022-11-04T20:36:27.170Z,10.93
2022-11-04T20:39:01.514Z,9.30
2022-11-04T20:41:28.743Z,6.63
2022-11-04T20:43:55.923Z,6.33
2022-11-04T20:46:27.269Z,9.90
2022-11-04T20:48:54.766Z,7.77
2022-11-04T20:51:23.547Z,11.33
2022-11-04T20:53:55.937Z,11.10
2022-11-04T20:56:24.057Z,8.77
2022-11-04T20:58:54.530Z,7.70
2022-11-04T21:01:27.991Z,5.97
2022-11-04T21:04:12.093Z,9.30
2022-11-04T21:06:39.107Z,9.63
2022-11-04T21:09:09.931Z,7.13
2022-11-04T21:11:39.003Z,3.30
2022-11-04T21:14:06.761Z,14.20
2022-11-04T21:16:35.533Z,8.13
2022-11-04T21:19:02.745Z,7.63
2022-11-04T21:21:30.063Z,7.00
2022-11-04T21:24:00.495Z,9.83
2022-11-04T21:26:28.677Z,5.43
2022-11-04T21:29:01.459Z,13.30
2022-11-04T21:31:28.727Z,5.73
2022-11-04T21:33:55.781Z,12.87
2022-11-04T21:36:22.630Z,9.50
2022-11-04T21:38:49.723Z,8.00
2022-11-04T21:41:18.093Z,13.17
2022-11-04T21:43:44.944Z,6.80
2022-11-04T21:46:13.785Z,5.10
2022-11-04T21:48:40.829Z,6.33
2022-11-04T21:51:09.749Z,4.50
2022-11-04T21:53:36.529Z,4.63
2022-11-04T21:56:10.804Z,8.80
2022-11-04T21:58:37.885Z,9.83
2022-11-04T22:01:08.075Z,12.97
2022-11-04T22:03:35.007Z,4.30
2022-11-04T22:06:05.886Z,4.70
2022-11-04T22:08:32.835Z,5.70
2022-11-04T22:11:10.209Z,7.40
2022-11-04T22:13:37.236Z,8.10
2022-11-04T22:16:14.573Z,7.53
2022-11-04T22:18:41.534Z,5.47
2022-11-04T22:21:10.538Z,5.17
2022-11-04T22:23:37.742Z,6.80
2022-11-04T22:26:06.383Z,9.47
2022-11-04T22:28:33.217Z,4.60
2022-11-04T22:31:17.194Z,4.37
2022-11-04T22:33:44.011Z,6.13
2022-11-04T22:36:11.267Z,6.13
2022-11-04T22:38:38.725Z,5.53
2022-11-04T22:41:06.316Z,6.20
2022-11-04T22:43:33.398Z,5.47
2022-11-04T22:46:05.247Z,12.30
2022-11-04T22:48:32.477Z,8.57
2022-11-04T22:50:59.481Z,10.27
2022-11-04T22:53:26.304Z,5.90
2022-11-04T22:55:53.209Z,5.80
2022-11-04T22:58:20.009Z,7.87
2022-11-04T23:00:46.829Z,2.33
2022-11-04T23:03:13.931Z,3.93
2022-11-04T23:05:41.152Z,3.20
2022-11-04T23:08:07.999Z,5.23
2022-11-04T23:10:53.705Z,3.83
2022-11-04T23:13:39.092Z,5.60
2022-11-04T23:16:24.732Z,6.00
2022-11-04T23:18:51.885Z,3.80
2022-11-04T23:21:38.969Z,4.33
2022-11-04T23:24:24.916Z,7.50
2022-11-04T23:26:51.673Z,5.60
2022-11-04T23:29:36.934Z,5.57
2022-11-04T23:32:04.020Z,5.80
2022-11-04T23:34:49.272Z,6.60
2022-11-04T23:37:16.078Z,4.67
2022-11-04T23:39:47.336Z,6.73
2022-11-04T23:42:19.311Z,5.30
2022-11-04T23:45:14.122Z,4.13
2022-11-04T23:48:01.424Z,9.67
2022-11-04T23:50:48.415Z,3.87
2022-11-04T23:53:34.214Z,10.60
2022-11-04T23:56:19.433Z,4.57
2022-11-04T23:59:05.131Z,6.53
